createdAt,value
2022-12-04T00:04:09.848Z,101403.63
2022-12-04T00:09:12.136Z,101401.47
2022-12-04T00:14:15.436Z,101395.84
2022-12-04T00:19:18.078Z,101395.63
2022-12-04T00:24:19.852Z,101398.00
2022-12-04T00:29:23.021Z,101397.06
2022-12-04T00:34:24.829Z,101395.31
2022-12-04T00:39:26.579Z,101389.91
2022-12-04T00:44:30.253Z,101395.31
2022-12-04T00:49:32.629Z,101381.44
2022-12-04T00:54:34.594Z,101376.34
2022-12-04T00:59:38.302Z,101385.03
2022-12-04T01:04:40.038Z,101379.38
2022-12-04T01:09:41.789Z,101389.75
2022-12-04T01:14:45.098Z,101386.50
2022-12-04T01:19:46.995Z,101387.94
2022-12-04T01:24:48.829Z,101383.00
2022-12-04T01:29:52.100Z,101377.53
2022-12-04T01:34:53.999Z,101370.59
2022-12-04T01:39:56.289Z,101370.91
2022-12-04T01:45:32.156Z,101369.44
2022-12-04T01:50:33.959Z,101366.13
2022-12-04T01:55:35.711Z,101363.91
2022-12-04T02:00:38.789Z,101361.56
2022-12-04T02:05:40.562Z,101363.03
2022-12-04T02:10:46.664Z,101357.06
2022-12-04T02:15:52.987Z,101360.84
2022-12-04T02:20:57.488Z,101353.06
2022-12-04T02:26:01.522Z,101360.47
2022-12-04T02:31:04.911Z,101354.69
2022-12-04T02:36:07.970Z,101350.66
2022-12-04T02:41:11.598Z,101348.16
2022-12-04T02:46:17.330Z,101339.75
2022-12-04T02:51:20.208Z,101336.41
2022-12-04T02:56:23.490Z,101339.66
2022-12-04T03:01:28.135Z,101325.94
2022-12-04T03:06:31.210Z,101334.56
2022-12-04T03:11:34.089Z,101348.34
2022-12-04T03:16:38.784Z,101338.84
2022-12-04T03:21:41.770Z,101339.88
2022-12-04T03:26:45.621Z,101340.06
2022-12-04T03:31:50.000Z,101331.59
2022-12-04T03:36:53.170Z,101334.69
2022-12-04T03:41:57.223Z,101335.19
2022-12-04T03:47:02.928Z,101330.00
2022-12-04T03:52:06.898Z,101319.19
2022-12-04T03:57:11.019Z,101323.50
2022-12-04T04:02:15.254Z,101317.03
2022-12-04T04:07:20.065Z,101323.97
2022-12-04T04:12:23.156Z,101322.69
2022-12-04T04:18:07.514Z,101324.97
2022-12-04T04:23:28.100Z,101325.53
2022-12-04T04:28:31.062Z,101329.16
2022-12-04T04:33:34.716Z,101331.88
2022-12-04T04:38:38.956Z,101325.03
2022-12-04T04:43:43.906Z,101331.31
2022-12-04T04:48:48.915Z,101333.91
2022-12-04T04:53:51.722Z,101334.81
2022-12-04T04:58:53.468Z,101338.00
2022-12-04T05:03:56.548Z,101333.72
2022-12-04T05:08:58.304Z,101323.75
2022-12-04T05:14:00.108Z,101323.53
2022-12-04T05:19:21.804Z,101333.72
2022-12-04T05:24:23.569Z,101333.88
2022-12-04T05:29:25.317Z,101330.19
2022-12-04T05:34:28.398Z,101333.31
2022-12-04T05:39:30.088Z,101327.72
2022-12-04T05:44:31.894Z,101326.00
2022-12-04T05:49:35.307Z,101318.69
2022-12-04T05:54:37.338Z,101324.88
2022-12-04T05:59:39.307Z,101329.03
2022-12-04T06:04:42.444Z,101330.28
2022-12-04T06:09:44.299Z,101323.97
2022-12-04T06:14:46.081Z,101326.75
2022-12-04T06:19:49.293Z,101325.44
2022-12-04T06:24:51.072Z,101337.75
2022-12-04T06:29:52.976Z,101334.13
2022-12-04T06:34:56.186Z,101345.75
2022-12-04T06:39:58.171Z,101333.06
2022-12-04T06:45:00.095Z,101341.88
2022-12-04T06:50:03.712Z,101356.84
2022-12-04T06:55:06.425Z,101354.50
2022-12-04T07:00:09.363Z,101363.03
2022-12-04T07:05:12.445Z,101355.19
2022-12-04T07:10:14.196Z,101381.97
2022-12-04T07:15:15.987Z,101369.56
2022-12-04T07:20:19.245Z,101375.09
2022-12-04T07:25:21.028Z,101373.28
2022-12-04T07:30:23.126Z,101371.72
2022-12-04T07:35:26.268Z,101382.88
2022-12-04T07:40:28.063Z,101391.34
2022-12-04T07:45:29.854Z,101385.75
2022-12-04T07:50:32.982Z,101388.63
2022-12-04T07:55:34.808Z,101386.63
2022-12-04T08:00:36.584Z,101380.94
2022-12-04T08:05:39.648Z,101374.41
2022-12-04T08:10:41.449Z,101382.50
2022-12-04T08:15:43.257Z,101373.00
2022-12-04T08:20:46.423Z,101373.97
2022-12-04T08:25:48.253Z,101364.31
2022-12-04T08:30:49.988Z,101362.41
2022-12-04T08:35:53.219Z,101365.88
2022-12-04T08:40:54.960Z,101365.81
2022-12-04T08:45:57.177Z,101363.44
2022-12-04T08:51:00.417Z,101366.84
2022-12-04T08:56:02.205Z,101380.41
2022-12-04T09:01:05.150Z,101372.81
2022-12-04T09:06:08.872Z,101368.31
2022-12-04T09:11:12.130Z,101363.88
2022-12-04T09:16:15.438Z,101367.75
2022-12-04T09:21:19.493Z,101368.69
2022-12-04T09:26:22.621Z,101376.88
2022-12-04T09:31:24.598Z,101367.97
2022-12-04T09:36:27.915Z,101366.38
2022-12-04T09:42:08.643Z,101353.59
2022-12-04T09:47:13.737Z,101346.09
2022-12-04T09:52:24.110Z,101342.59
2022-12-04T09:57:28.636Z,101336.31
2022-12-04T10:02:34.443Z,101332.94
2022-12-04T10:07:42.333Z,101339.25
2022-12-04T10:12:49.064Z,101336.78
2022-12-04T10:17:58.014Z,101341.50
2022-12-04T10:23:08.098Z,101340.25
2022-12-04T10:28:19.113Z,101342.72
2022-12-04T10:33:32.467Z,101325.59
2022-12-04T10:38:39.194Z,101333.41
2022-12-04T10:43:42.910Z,101337.84
2022-12-04T10:48:45.326Z,101335.16
2022-12-04T10:53:51.318Z,101329.78
2022-12-04T10:58:57.531Z,101323.88
2022-12-04T11:04:02.053Z,101311.16
2022-12-04T11:09:05.100Z,101305.53
2022-12-04T11:14:08.009Z,101307.56
2022-12-04T11:19:21.227Z,101304.13
2022-12-04T11:24:33.159Z,101302.41
2022-12-04T11:29:36.336Z,101301.34
2022-12-04T11:34:39.754Z,101294.31
2022-12-04T11:39:42.912Z,101287.81
2022-12-04T11:44:50.352Z,101281.16
2022-12-04T11:50:01.562Z,101274.75
2022-12-04T11:55:08.930Z,101264.41
2022-12-04T12:00:12.437Z,101267.81
2022-12-04T12:05:39.634Z,101264.41
2022-12-04T12:10:45.137Z,101269.53
2022-12-04T12:15:50.157Z,101272.88
2022-12-04T12:20:56.672Z,101269.53
2022-12-04T12:26:03.277Z,101267.50
2022-12-04T12:31:13.529Z,101263.06
2022-12-04T12:36:15.313Z,101268.84
2022-12-04T12:41:19.778Z,101270.25
2022-12-04T12:46:24.112Z,101259.31
2022-12-04T12:51:30.735Z,101257.94
2022-12-04T12:56:38.379Z,101250.28
2022-12-04T13:01:44.427Z,101242.28
2022-12-04T13:06:47.207Z,101240.44
2022-12-04T13:11:50.240Z,101237.41
2022-12-04T13:16:53.220Z,101237.88
2022-12-04T13:21:59.467Z,101234.59
2022-12-04T13:27:05.061Z,101230.31
2022-12-04T13:32:14.519Z,101229.53
2022-12-04T13:37:38.553Z,101233.19
2022-12-04T13:42:42.192Z,101225.31
2022-12-04T13:47:43.890Z,101219.97
2022-12-04T13:52:47.243Z,101223.56
2022-12-04T13:57:54.835Z,101211.56
2022-12-04T14:02:57.794Z,101203.88
2022-12-04T14:08:07.841Z,101206.38
2022-12-04T14:13:17.839Z,101201.97
2022-12-04T14:18:25.387Z,101199.66
2022-12-04T14:23:33.206Z,101190.91
2022-12-04T14:28:42.582Z,101193.44
2022-12-04T14:33:45.615Z,101183.88
2022-12-04T14:38:47.932Z,101184.81
2022-12-04T14:43:52.574Z,101178.69
2022-12-04T14:48:56.996Z,101173.34
2022-12-04T14:54:01.097Z,101168.97
2022-12-04T14:59:06.695Z,101162.03
2022-12-04T15:04:13.131Z,101176.94
2022-12-04T15:09:35.964Z,101173.38
2022-12-04T15:14:42.791Z,101174.31
2022-12-04T15:19:44.509Z,101175.31
2022-12-04T15:24:46.161Z,101176.03
2022-12-04T15:29:51.352Z,101175.19
2022-12-04T15:34:54.807Z,101170.91
2022-12-04T15:39:56.969Z,101171.19
2022-12-04T15:45:02.525Z,101180.75
2022-12-04T15:50:09.872Z,101184.78
2022-12-04T15:55:12.989Z,101177.69
2022-12-04T16:00:24.665Z,101174.47
2022-12-04T16:05:34.837Z,101184.09
2022-12-04T16:10:37.875Z,101189.22
2022-12-04T16:15:41.924Z,101182.88
2022-12-04T16:20:43.730Z,101189.44
2022-12-04T16:25:45.793Z,101197.25
2022-12-04T16:30:50.168Z,101210.94
2022-12-04T16:35:51.962Z,101217.31
2022-12-04T16:40:53.693Z,101221.06
2022-12-04T16:46:00.264Z,101212.50
2022-12-04T16:51:02.006Z,101217.78
2022-12-04T16:56:04.068Z,101224.97
2022-12-04T17:01:13.782Z,101216.25
2022-12-04T17:06:15.579Z,101217.13
2022-12-04T17:11:17.607Z,101223.97
2022-12-04T17:16:20.858Z,101223.34
2022-12-04T17:21:22.709Z,101223.31
2022-12-04T17:26:24.638Z,101221.41
2022-12-04T17:31:27.945Z,101225.19
2022-12-04T17:36:30.205Z,101222.09
2022-12-04T17:41:31.987Z,101220.28
2022-12-04T17:46:35.162Z,101221.31
2022-12-04T17:51:37.665Z,101220.19
2022-12-04T17:56:43.293Z,101210.59
2022-12-04T18:01:50.430Z,101217.22
2022-12-04T18:06:52.729Z,101214.09
2022-12-04T18:11:56.193Z,101212.50
2022-12-04T18:16:59.455Z,101217.75
2022-12-04T18:22:01.403Z,101219.22
2022-12-04T18:27:03.650Z,101228.44
2022-12-04T18:32:06.914Z,101232.69
2022-12-04T18:37:09.081Z,101211.72
2022-12-04T18:42:11.765Z,101206.91
2022-12-04T18:47:14.907Z,101203.47
2022-12-04T18:52:16.656Z,101215.84
2022-12-04T18:57:18.403Z,101212.59
2022-12-04T19:02:21.566Z,101208.03
2022-12-04T19:07:23.351Z,101198.31
2022-12-04T19:12:25.140Z,101200.00
2022-12-04T19:17:28.272Z,101207.00
2022-12-04T19:22:30.026Z,101213.03
2022-12-04T19:27:31.843Z,101211.25
2022-12-04T19:32:34.975Z,101205.06
2022-12-04T19:37:41.585Z,101208.06
2022-12-04T19:42:43.792Z,101208.97
2022-12-04T19:47:47.006Z,101203.13
2022-12-04T19:52:48.762Z,101207.53
2022-12-04T19:57:50.546Z,101204.97
2022-12-04T20:02:53.723Z,101200.75
2022-12-04T20:07:55.678Z,101193.97
2022-12-04T20:12:57.483Z,101191.19
2022-12-04T20:18:00.601Z,101196.47
2022-12-04T20:23:02.466Z,101201.84
2022-12-04T20:28:04.269Z,101206.19
2022-12-04T20:33:07.332Z,101205.59
2022-12-04T20:38:09.110Z,101203.84
2022-12-04T20:43:10.883Z,101206.53
2022-12-04T20:48:14.031Z,101202.81
2022-12-04T20:53:16.373Z,101204.09
2022-12-04T20:58:18.145Z,101192.50
2022-12-04T21:03:21.323Z,101199.63
2022-12-04T21:08:43.056Z,101177.72
2022-12-04T21:14:03.720Z,101172.00
2022-12-04T21:19:07.378Z,101173.16
2022-12-04T21:24:11.943Z,101168.44
2022-12-04T21:29:13.773Z,101165.84
2022-12-04T21:34:17.182Z,101161.56
2022-12-04T21:39:19.741Z,101157.50
2022-12-04T21:44:21.764Z,101152.13
2022-12-04T21:49:24.974Z,101161.81
2022-12-04T21:54:26.987Z,101140.69
2022-12-04T21:59:28.808Z,101141.84
2022-12-04T22:04:31.941Z,101142.72
2022-12-04T22:09:33.824Z,101141.75
2022-12-04T22:14:35.563Z,101133.22
2022-12-04T22:19:39.114Z,101143.50
2022-12-04T22:24:41.632Z,101141.69
2022-12-04T22:30:02.284Z,101144.06
2022-12-04T22:35:08.149Z,101151.53
2022-12-04T22:40:10.993Z,101152.59
2022-12-04T22:45:12.722Z,101152.84
2022-12-04T22:50:15.984Z,101151.81
2022-12-04T22:55:17.890Z,101147.47
2022-12-04T23:00:19.695Z,101141.69
2022-12-04T23:05:22.805Z,101138.31
2022-12-04T23:10:24.655Z,101133.00
2022-12-04T23:15:26.390Z,101124.28
2022-12-04T23:20:29.462Z,101130.47
2022-12-04T23:25:31.192Z,101123.59
2022-12-04T23:30:36.596Z,101132.88
2022-12-04T23:35:39.904Z,101130.06
2022-12-04T23:40:41.644Z,101137.31
2022-12-04T23:45:43.600Z,101132.13
2022-12-04T23:50:46.702Z,101135.78
2022-12-04T23:55:55.571Z,101127.06
